createdAt,value
2022-07-28T01:30:55.578Z,1.60
2022-07-28T01:33:33.752Z,1.70
2022-07-28T01:36:14.483Z,1.70
2022-07-28T01:38:45.621Z,1.60
2022-07-28T01:41:21.405Z,1.63
2022-07-28T01:43:59.323Z,1.40
2022-07-28T01:46:31.284Z,1.60
2022-07-28T01:49:01.115Z,1.53
2022-07-28T01:51:32.612Z,1.53
2022-07-28T01:54:02.819Z,1.87
2022-07-28T01:56:36.319Z,1.70
2022-07-28T01:59:10.050Z,1.73
2022-07-28T02:01:45.502Z,1.63
2022-07-28T02:04:20.287Z,1.90
2022-07-28T02:06:58.297Z,1.70
2022-07-28T02:09:28.540Z,1.87
2022-07-28T02:12:03.184Z,1.73
2022-07-28T02:14:33.177Z,1.50
2022-07-28T02:17:12.409Z,1.87
2022-07-28T02:19:46.318Z,1.73
2022-07-28T02:22:16.130Z,1.60
2022-07-28T02:24:53.144Z,1.70
2022-07-28T02:27:32.206Z,1.50
2022-07-28T02:30:07.275Z,1.40
2022-07-28T02:32:41.176Z,1.80
2022-07-28T02:35:17.694Z,1.60
2022-07-28T02:38:02.127Z,1.50
2022-07-28T02:40:41.243Z,1.60
2022-07-28T02:43:18.576Z,1.60
2022-07-28T02:45:53.708Z,1.67
2022-07-28T02:48:28.315Z,1.90
2022-07-28T02:51:03.017Z,1.60
2022-07-28T02:53:32.660Z,1.63
2022-07-28T02:56:05.450Z,1.63
2022-07-28T02:58:35.639Z,1.90
2022-07-28T03:01:05.058Z,1.90
2022-07-28T03:03:37.195Z,1.70
2022-07-28T03:06:07.623Z,2.00
2022-07-28T03:08:36.870Z,1.77
2022-07-28T03:11:10.386Z,1.53
2022-07-28T03:13:39.630Z,1.53
2022-07-28T03:16:11.695Z,1.80
2022-07-28T03:18:43.333Z,1.80
2022-07-28T03:21:12.410Z,1.33
2022-07-28T03:23:43.565Z,1.70
2022-07-28T03:26:19.241Z,1.60
2022-07-28T03:28:54.978Z,1.87
2022-07-28T03:31:25.637Z,1.80
2022-07-28T03:33:59.111Z,1.77
2022-07-28T03:36:40.141Z,1.60
2022-07-28T03:39:12.259Z,1.67
2022-07-28T03:41:43.777Z,1.90
2022-07-28T03:44:13.995Z,1.90
2022-07-28T03:47:00.139Z,1.67
2022-07-28T03:49:30.409Z,1.80
2022-07-28T03:52:02.647Z,2.03
2022-07-28T03:54:31.668Z,1.60
2022-07-28T03:57:03.630Z,1.73
2022-07-28T03:59:32.657Z,2.10
2022-07-28T04:02:01.554Z,1.67
2022-07-28T04:04:32.135Z,1.60
2022-07-28T04:07:04.203Z,1.80
2022-07-28T04:09:33.035Z,1.60
2022-07-28T04:12:02.085Z,1.70
2022-07-28T04:14:35.526Z,1.60
2022-07-28T04:17:04.451Z,2.00
2022-07-28T04:19:39.145Z,1.80
2022-07-28T04:22:08.342Z,1.83
2022-07-28T04:24:40.204Z,1.80
2022-07-28T04:27:09.505Z,1.90
2022-07-28T04:29:41.364Z,1.70
2022-07-28T04:32:10.766Z,1.60
2022-07-28T04:34:43.864Z,1.67
2022-07-28T04:37:13.005Z,1.77
2022-07-28T04:39:44.298Z,1.70
2022-07-28T04:42:13.338Z,1.77
2022-07-28T04:44:45.776Z,1.70
2022-07-28T04:47:14.658Z,1.50
2022-07-28T04:49:47.642Z,1.70
2022-07-28T04:52:16.933Z,1.60
2022-07-28T04:54:46.089Z,1.93
2022-07-28T04:57:18.298Z,2.03
2022-07-28T04:59:49.542Z,1.97
2022-07-28T05:02:26.137Z,1.60
2022-07-28T05:05:02.030Z,1.97
2022-07-28T05:07:31.074Z,1.90
2022-07-28T05:10:03.139Z,1.73
2022-07-28T05:12:34.896Z,1.60
2022-07-28T05:15:05.950Z,1.80
2022-07-28T05:17:35.135Z,1.50
2022-07-28T05:20:08.727Z,1.80
2022-07-28T05:22:45.173Z,1.70
2022-07-28T05:25:18.837Z,1.90
2022-07-28T05:27:48.432Z,1.67
2022-07-28T05:30:21.089Z,1.57
2022-07-28T05:32:54.297Z,1.73
2022-07-28T05:35:24.712Z,1.60
2022-07-28T05:37:59.642Z,1.70
2022-07-28T05:40:28.833Z,1.43
2022-07-28T05:42:57.937Z,1.90
2022-07-28T05:45:27.103Z,1.73
2022-07-28T05:47:59.300Z,1.50
2022-07-28T05:50:29.906Z,1.77
2022-07-28T05:52:59.002Z,1.53
2022-07-28T05:55:31.044Z,1.77
2022-07-28T05:58:00.959Z,1.30
2022-07-28T06:00:33.788Z,1.50
2022-07-28T06:03:05.725Z,1.43
2022-07-28T06:06:00.582Z,1.53
2022-07-28T06:08:30.270Z,1.57
2022-07-28T06:11:09.552Z,1.43
2022-07-28T06:13:41.280Z,1.70
2022-07-28T06:16:13.276Z,1.50
2022-07-28T06:18:45.996Z,1.40
2022-07-28T06:21:16.831Z,1.30
2022-07-28T06:23:49.521Z,1.50
2022-07-28T06:26:18.504Z,1.60
2022-07-28T06:28:50.567Z,1.57
2022-07-28T06:31:19.617Z,1.70
2022-07-28T06:33:51.229Z,1.50
2022-07-28T06:36:21.972Z,1.73
2022-07-28T06:38:53.695Z,1.43
2022-07-28T06:41:22.601Z,1.40
2022-07-28T06:43:59.787Z,1.50
2022-07-28T06:46:30.910Z,1.37
2022-07-28T06:49:02.609Z,1.40
2022-07-28T06:51:33.726Z,1.43
2022-07-28T06:54:11.225Z,1.20
2022-07-28T06:56:44.287Z,1.50
2022-07-28T06:59:29.210Z,1.50
2022-07-28T07:02:02.201Z,1.13
2022-07-28T07:04:32.034Z,1.37
2022-07-28T07:07:03.100Z,1.50
2022-07-28T07:09:44.766Z,1.30
2022-07-28T07:12:13.929Z,1.33
2022-07-28T07:14:43.391Z,1.37
2022-07-28T07:17:21.045Z,1.70
2022-07-28T07:19:50.440Z,1.40
2022-07-28T07:22:21.341Z,1.40
2022-07-28T07:24:53.577Z,1.47
2022-07-28T07:27:28.993Z,1.43
2022-07-28T07:30:05.933Z,1.30
2022-07-28T07:32:38.778Z,1.20
2022-07-28T07:35:11.383Z,1.37
2022-07-28T07:37:43.460Z,1.00
2022-07-28T07:40:13.785Z,1.20
2022-07-28T07:42:47.276Z,1.20
2022-07-28T07:45:17.089Z,1.10
2022-07-28T07:47:48.872Z,1.20
2022-07-28T07:50:19.097Z,1.10
2022-07-28T07:52:57.375Z,1.00
2022-07-28T07:55:27.242Z,1.23
2022-07-28T07:58:03.883Z,1.20
2022-07-28T08:00:33.681Z,1.20
2022-07-28T08:03:11.261Z,1.10
2022-07-28T08:05:44.154Z,1.20
2022-07-28T08:08:18.073Z,1.10
2022-07-28T08:10:47.266Z,1.13
2022-07-28T08:13:17.693Z,1.10
2022-07-28T08:15:52.917Z,1.23
2022-07-28T08:18:22.743Z,0.97
2022-07-28T08:20:52.765Z,1.30
2022-07-28T08:23:27.331Z,1.37
2022-07-28T08:25:57.386Z,1.17
2022-07-28T08:28:29.163Z,1.13
2022-07-28T08:30:58.189Z,1.20
2022-07-28T08:33:29.055Z,1.27
2022-07-28T08:36:00.395Z,1.20
2022-07-28T08:38:31.071Z,1.20
2022-07-28T08:41:10.879Z,1.40
2022-07-28T08:43:43.788Z,1.40
2022-07-28T08:46:18.138Z,1.30
2022-07-28T08:48:51.556Z,1.27
2022-07-28T08:51:22.353Z,1.60
2022-07-28T08:53:54.376Z,1.43
2022-07-28T08:56:24.303Z,1.70
2022-07-28T08:58:53.306Z,1.40
2022-07-28T09:01:24.295Z,1.50
2022-07-28T09:03:56.611Z,1.57
2022-07-28T09:06:26.539Z,1.17
2022-07-28T09:09:00.050Z,1.57
2022-07-28T09:11:29.543Z,1.37
2022-07-28T09:13:57.593Z,1.40
2022-07-28T09:16:25.840Z,1.50
2022-07-28T09:18:56.599Z,1.70
2022-07-28T09:21:25.145Z,1.30
2022-07-28T09:23:55.913Z,1.27
2022-07-28T09:26:25.396Z,1.50
2022-07-28T09:28:55.965Z,1.37
2022-07-28T09:31:26.361Z,1.70
2022-07-28T09:33:56.598Z,1.33
2022-07-28T09:36:28.465Z,1.60
2022-07-28T09:38:58.775Z,1.40
2022-07-28T09:41:46.713Z,1.30
2022-07-28T09:44:19.661Z,1.33
2022-07-28T09:46:47.970Z,1.30
2022-07-28T09:49:28.086Z,1.30
2022-07-28T09:52:05.748Z,1.27
2022-07-28T09:54:38.758Z,1.27
2022-07-28T09:57:13.055Z,1.37
2022-07-28T09:59:46.190Z,1.00
2022-07-28T10:02:25.566Z,1.20
2022-07-28T10:04:55.166Z,1.50
2022-07-28T10:07:28.457Z,1.23
2022-07-28T10:09:59.419Z,1.20
2022-07-28T10:12:33.335Z,1.30
2022-07-28T10:15:34.532Z,1.23
2022-07-28T10:18:03.420Z,1.10
2022-07-28T10:20:39.494Z,0.70
2022-07-28T10:23:11.567Z,1.30
2022-07-28T10:25:41.913Z,1.00
2022-07-28T10:28:12.948Z,1.23
2022-07-28T10:30:44.546Z,1.07
2022-07-28T10:33:17.188Z,1.30
2022-07-28T10:35:55.485Z,1.20
2022-07-28T10:38:29.706Z,1.20
2022-07-28T10:41:02.813Z,1.27
2022-07-28T10:43:33.751Z,1.13
2022-07-28T10:46:06.272Z,1.30
2022-07-28T10:48:37.929Z,1.40
2022-07-28T10:51:06.823Z,1.00
2022-07-28T10:53:42.572Z,1.03
2022-07-28T10:56:18.793Z,1.10
2022-07-28T10:59:02.780Z,1.00
2022-07-28T11:01:48.381Z,0.90
2022-07-28T11:04:52.710Z,1.10
2022-07-28T11:07:22.318Z,0.80
2022-07-28T11:09:50.617Z,1.10
2022-07-28T11:12:49.015Z,1.10
2022-07-28T11:15:32.077Z,1.30
2022-07-28T11:18:02.818Z,1.13
2022-07-28T11:21:09.191Z,1.20
2022-07-28T11:23:55.464Z,1.20
2022-07-28T11:26:48.339Z,0.97
2022-07-28T11:29:23.528Z,0.90
2022-07-28T11:32:00.441Z,1.10
2022-07-28T11:34:28.669Z,1.33
2022-07-28T11:37:04.428Z,1.00
2022-07-28T11:39:43.327Z,0.90
2022-07-28T11:42:30.791Z,1.13
2022-07-28T11:45:35.881Z,1.10
2022-07-28T11:48:16.684Z,1.10
2022-07-28T11:51:11.421Z,1.17
2022-07-28T11:53:41.064Z,1.10
2022-07-28T11:56:13.610Z,1.20
2022-07-28T11:58:42.626Z,1.10
2022-07-28T12:01:18.289Z,0.97
2022-07-28T12:03:55.653Z,1.20
2022-07-28T12:06:28.791Z,1.10
2022-07-28T12:08:59.571Z,1.00
2022-07-28T12:11:28.994Z,1.13
2022-07-28T12:14:00.596Z,0.80
2022-07-28T12:16:29.994Z,1.10
2022-07-28T12:19:02.253Z,1.20
2022-07-28T12:21:37.530Z,1.03
2022-07-28T12:24:16.509Z,0.90
2022-07-28T12:26:53.506Z,1.17
2022-07-28T12:29:21.617Z,0.93
2022-07-28T12:31:59.225Z,1.10
2022-07-28T12:34:32.788Z,1.20
2022-07-28T12:37:02.986Z,1.00
2022-07-28T12:39:37.945Z,1.10
2022-07-28T12:42:08.740Z,1.00
2022-07-28T12:44:40.952Z,0.90
2022-07-28T12:47:11.947Z,1.30
2022-07-28T12:49:45.729Z,1.00
2022-07-28T12:52:18.519Z,1.13
2022-07-28T12:54:54.448Z,1.10
2022-07-28T12:57:48.056Z,1.03
2022-07-28T13:00:20.193Z,0.97
2022-07-28T13:02:48.883Z,1.20
2022-07-28T13:05:57.698Z,1.10
2022-07-28T13:08:29.546Z,0.97
2022-07-28T13:11:00.224Z,1.10
2022-07-28T13:13:29.301Z,1.20
2022-07-28T13:16:13.259Z,1.00
2022-07-28T13:18:42.154Z,0.80
2022-07-28T13:21:11.968Z,1.20
2022-07-28T13:23:40.636Z,1.13
2022-07-28T13:26:09.149Z,0.97
2022-07-28T13:28:37.435Z,1.17
2022-07-28T13:31:09.052Z,1.20
2022-07-28T13:33:37.228Z,0.80
2022-07-28T13:36:05.611Z,1.20
2022-07-28T13:38:38.208Z,1.00
2022-07-28T13:41:06.360Z,1.00
2022-07-28T13:43:37.243Z,1.30
2022-07-28T13:46:05.596Z,0.83
2022-07-28T13:48:38.586Z,0.93
2022-07-28T13:51:26.750Z,1.20
2022-07-28T13:53:56.944Z,1.03
2022-07-28T13:56:25.458Z,1.10
2022-07-28T13:59:10.104Z,1.20
2022-07-28T14:01:43.526Z,1.20
2022-07-28T14:04:16.642Z,1.20
2022-07-28T14:06:45.883Z,1.30
2022-07-28T14:09:18.627Z,0.90
2022-07-28T14:11:50.034Z,1.10
2022-07-28T14:14:25.542Z,1.10
2022-07-28T14:16:55.224Z,0.97
2022-07-28T14:19:38.640Z,1.10
2022-07-28T14:22:13.636Z,0.90
2022-07-28T14:24:43.914Z,1.20
2022-07-28T14:27:12.071Z,1.30
2022-07-28T14:29:40.443Z,1.13
2022-07-28T14:32:11.314Z,1.10
2022-07-28T14:34:40.616Z,1.13
2022-07-28T14:37:12.817Z,0.90
2022-07-28T14:39:40.948Z,1.10
2022-07-28T14:42:14.008Z,1.00
2022-07-28T14:44:42.098Z,1.00
2022-07-28T14:47:10.299Z,1.27
2022-07-28T14:49:38.498Z,1.00
2022-07-28T14:52:29.450Z,0.93
2022-07-28T14:54:58.429Z,1.17
2022-07-28T14:57:50.061Z,1.30
2022-07-28T15:00:19.244Z,1.23
2022-07-28T15:02:47.670Z,1.20
2022-07-28T15:05:19.399Z,1.10
2022-07-28T15:07:49.239Z,1.23
2022-07-28T15:10:21.489Z,1.37
2022-07-28T15:12:51.956Z,1.30
2022-07-28T15:15:26.314Z,1.60
2022-07-28T15:17:55.925Z,1.23
2022-07-28T15:20:24.439Z,1.70
2022-07-28T15:22:52.534Z,1.40
2022-07-28T15:25:23.037Z,1.30
2022-07-28T15:27:52.490Z,1.00
2022-07-28T15:30:23.167Z,1.07
2022-07-28T15:32:57.183Z,1.13
2022-07-28T15:35:56.503Z,1.10
2022-07-28T15:38:18.925Z,1.10
2022-07-28T15:40:48.374Z,1.30
2022-07-28T15:43:23.647Z,1.50
2022-07-28T15:45:54.985Z,1.10
2022-07-28T15:48:23.596Z,1.00
2022-07-28T15:50:52.721Z,1.00
2022-07-28T15:53:21.333Z,1.10
2022-07-28T15:55:52.715Z,0.90
2022-07-28T15:58:23.259Z,1.07
2022-07-28T16:00:54.962Z,1.10
2022-07-28T16:03:23.688Z,1.10
2022-07-28T16:05:55.921Z,1.20
2022-07-28T16:08:24.747Z,1.30
2022-07-28T16:10:55.883Z,1.00
2022-07-28T16:13:36.477Z,1.37
2022-07-28T16:16:07.355Z,2.10
2022-07-28T16:18:36.506Z,1.00
2022-07-28T16:21:06.479Z,1.27
2022-07-28T16:23:35.046Z,1.20
2022-07-28T16:26:09.060Z,1.00
2022-07-28T16:28:38.558Z,1.10
2022-07-28T16:31:09.742Z,1.13
2022-07-28T16:33:38.448Z,0.90
2022-07-28T16:36:11.217Z,1.27
2022-07-28T16:38:39.547Z,1.07
2022-07-28T16:41:09.841Z,1.10
2022-07-28T16:43:44.589Z,1.10
2022-07-28T16:46:15.331Z,1.10
2022-07-28T16:48:43.547Z,0.93
2022-07-28T16:51:11.993Z,1.10
2022-07-28T16:53:40.076Z,1.30
2022-07-28T16:56:08.220Z,1.00
2022-07-28T16:58:40.737Z,1.10
2022-07-28T17:01:09.194Z,0.90
2022-07-28T17:03:37.354Z,0.90
2022-07-28T17:06:05.677Z,0.93
2022-07-28T17:08:38.158Z,1.20
2022-07-28T17:11:06.250Z,1.13
2022-07-28T17:13:34.344Z,1.20
2022-07-28T17:16:05.167Z,1.00
2022-07-28T17:18:34.999Z,1.10
2022-07-28T17:21:03.283Z,1.10
2022-07-28T17:23:31.702Z,1.00
2022-07-28T17:27:04.952Z,1.10
2022-07-28T17:28:53.455Z,1.10
2022-07-28T17:31:22.966Z,1.10
2022-07-28T17:33:51.155Z,1.00
2022-07-28T17:36:19.252Z,1.10
2022-07-28T17:38:47.289Z,0.90
2022-07-28T17:41:15.353Z,1.20
2022-07-28T17:43:45.638Z,1.20
2022-07-28T17:46:14.330Z,1.00
2022-07-28T17:48:44.204Z,1.00
2022-07-28T17:51:15.575Z,1.30
2022-07-28T17:53:43.734Z,1.00
2022-07-28T17:56:16.824Z,1.20
2022-07-28T17:58:44.904Z,1.00
2022-07-28T18:01:15.151Z,1.20
2022-07-28T18:03:57.907Z,1.17
2022-07-28T18:06:32.800Z,1.00
2022-07-28T18:09:09.165Z,1.10
2022-07-28T18:11:56.065Z,1.10
2022-07-28T18:14:26.788Z,1.20
2022-07-28T18:16:54.966Z,1.03
2022-07-28T18:19:25.489Z,1.10
2022-07-28T18:21:59.493Z,1.00
2022-07-28T18:24:28.928Z,1.10
2022-07-28T18:27:00.200Z,1.00
2022-07-28T18:29:38.213Z,1.30
2022-07-28T18:32:12.110Z,1.37
2022-07-28T18:34:41.720Z,1.03
2022-07-28T18:37:09.867Z,1.00
2022-07-28T18:39:41.381Z,1.63
2022-07-28T18:42:10.560Z,1.50
2022-07-28T18:44:42.629Z,1.70
2022-07-28T18:47:10.801Z,1.70
2022-07-28T18:49:38.996Z,1.20
2022-07-28T18:52:08.624Z,1.33
2022-07-28T18:54:36.925Z,1.10
2022-07-28T18:57:07.987Z,1.33
2022-07-28T18:59:41.537Z,1.30
2022-07-28T19:02:13.925Z,1.40
2022-07-28T19:04:42.127Z,1.30
2022-07-28T19:07:14.550Z,1.37
2022-07-28T19:09:43.287Z,1.20
2022-07-28T19:12:11.964Z,1.20
2022-07-28T19:14:43.186Z,1.00
2022-07-28T19:17:11.674Z,1.20
2022-07-28T19:19:42.609Z,1.40
2022-07-28T19:22:11.664Z,1.20
2022-07-28T19:24:44.193Z,1.30
2022-07-28T19:27:12.299Z,1.40
2022-07-28T19:29:40.425Z,1.80
2022-07-28T19:32:08.905Z,1.33
2022-07-28T19:34:36.975Z,1.20
2022-07-28T19:37:09.182Z,1.20
2022-07-28T19:39:46.869Z,1.30
2022-07-28T19:42:17.929Z,1.60
2022-07-28T19:44:46.514Z,1.33
2022-07-28T19:47:17.047Z,1.30
2022-07-28T19:49:45.102Z,1.43
2022-07-28T19:52:13.246Z,1.57
2022-07-28T19:54:43.678Z,2.53
2022-07-28T19:57:20.709Z,3.47
2022-07-28T19:59:48.757Z,3.10
2022-07-28T20:02:17.021Z,2.90
2022-07-28T20:04:48.201Z,3.00
2022-07-28T20:07:16.290Z,2.73
2022-07-28T20:09:44.353Z,2.47
2022-07-28T20:12:15.647Z,2.00
2022-07-28T20:14:45.156Z,2.10
2022-07-28T20:17:35.600Z,1.47
2022-07-28T20:20:04.295Z,1.30
2022-07-28T20:22:32.408Z,1.43
2022-07-28T20:25:00.624Z,1.50
2022-07-28T20:27:28.779Z,1.80
2022-07-28T20:30:01.226Z,1.63
2022-07-28T20:32:29.364Z,1.60
2022-07-28T20:34:58.233Z,1.40
2022-07-28T20:37:36.246Z,1.63
2022-07-28T20:40:06.258Z,1.60
2022-07-28T20:42:34.459Z,1.80
2022-07-28T20:45:07.640Z,1.63
2022-07-28T20:47:37.170Z,1.50
2022-07-28T20:50:08.857Z,1.80
2022-07-28T20:52:37.209Z,1.90
2022-07-28T20:55:09.363Z,1.50
2022-07-28T20:57:37.417Z,1.60
2022-07-28T21:00:10.861Z,1.90
2022-07-28T21:02:39.088Z,1.40
2022-07-28T21:05:08.090Z,1.60
2022-07-28T21:08:00.090Z,1.50
2022-07-28T21:10:29.390Z,1.60
2022-07-28T21:13:00.652Z,1.80
2022-07-28T21:15:30.277Z,1.60
2022-07-28T21:18:01.388Z,1.50
2022-07-28T21:20:29.967Z,1.60
2022-07-28T21:23:00.168Z,1.30
2022-07-28T21:25:30.774Z,1.37
2022-07-28T21:28:16.131Z,1.40
2022-07-28T21:30:48.059Z,1.60
2022-07-28T21:33:22.256Z,1.60
2022-07-28T21:35:51.742Z,1.60
2022-07-28T21:38:19.775Z,1.63
2022-07-28T21:40:47.829Z,1.60
2022-07-28T21:43:15.956Z,1.50
2022-07-28T21:45:46.634Z,1.67
2022-07-28T21:48:19.256Z,1.50
2022-07-28T21:50:47.362Z,1.50
2022-07-28T21:53:18.272Z,1.40
2022-07-28T21:55:47.544Z,1.30
2022-07-28T21:58:16.422Z,1.33
2022-07-28T22:00:46.023Z,1.40
2022-07-28T22:03:14.095Z,1.70
2022-07-28T22:05:45.206Z,1.47
2022-07-28T22:08:13.322Z,1.53
2022-07-28T22:10:41.523Z,1.50
2022-07-28T22:13:09.573Z,1.47
2022-07-28T22:15:37.790Z,1.50
2022-07-28T22:18:16.228Z,1.60
2022-07-28T22:20:44.860Z,1.60
2022-07-28T22:23:19.937Z,1.30
2022-07-28T22:25:58.551Z,1.43
2022-07-28T22:28:29.836Z,1.47
2022-07-28T22:30:59.065Z,1.57
2022-07-28T22:33:42.243Z,1.50
2022-07-28T22:36:10.404Z,1.70
2022-07-28T22:38:41.303Z,1.77
2022-07-28T22:41:09.622Z,1.80
2022-07-28T22:43:38.337Z,1.77
2022-07-28T22:46:09.354Z,1.60
2022-07-28T22:48:37.472Z,1.70
2022-07-28T22:51:10.856Z,1.70
2022-07-28T22:53:39.048Z,1.47
2022-07-28T22:56:07.875Z,1.47
2022-07-28T22:58:36.171Z,1.50
2022-07-28T23:01:09.931Z,1.80
2022-07-28T23:03:38.636Z,2.10
2022-07-28T23:06:10.815Z,1.70
2022-07-28T23:08:38.924Z,1.80
2022-07-28T23:11:07.373Z,1.77
2022-07-28T23:13:41.717Z,2.07
2022-07-28T23:16:10.116Z,1.80
2022-07-28T23:18:40.637Z,2.00
2022-07-28T23:21:10.884Z,1.70
2022-07-28T23:23:39.385Z,1.20
2022-07-28T23:26:11.336Z,1.50
2022-07-28T23:28:40.441Z,1.77
2022-07-28T23:31:08.542Z,1.73
2022-07-28T23:33:55.441Z,1.57
2022-07-28T23:36:29.487Z,1.70
2022-07-28T23:38:58.753Z,1.93
2022-07-28T23:41:30.090Z,1.67
2022-07-28T23:43:59.268Z,1.70
2022-07-28T23:46:27.408Z,1.77
2022-07-28T23:48:57.169Z,1.83
2022-07-28T23:51:46.694Z,1.97
2022-07-28T23:54:15.034Z,1.47
2022-07-28T23:56:46.335Z,1.80
2022-07-28T23:59:14.941Z,1.87
